Time;durP1;ratioP1;P1;durP2;ratioP2;P2;SDS_P1;SDS_P2;PMS_P1;PMS_P2;Temp;Humidity;BMP_temperature;BMP_pressure;BME280_temperature;BME280_humidity;BME280_pressure;Samples;Min_cycle;Max_cycle;Signal;HPM_P1;HPM_P2
2023/10/13 00:02:19;;;;;;;6.53;4.13;;;13.40;99.90;;;;;;5219890;28;20487;-49
2023/10/13 00:04:49;;;;;;;6.87;4.93;;;13.30;99.90;;;;;;5223085;28;20288;-49
2023/10/13 00:07:20;;;;;;;15.00;4.90;;;13.40;99.90;;;;;;5225252;28;20432;-47
2023/10/13 00:09:51;;;;;;;6.67;3.73;;;13.40;99.90;;;;;;5224564;28;20229;-50
2023/10/13 00:12:23;;;;;;;14.40;5.30;;;13.50;99.90;;;;;;5224949;28;20190;-50
2023/10/13 00:14:54;;;;;;;14.03;4.40;;;13.50;99.90;;;;;;5218456;28;20301;-50
2023/10/13 00:17:24;;;;;;;8.37;4.83;;;13.40;99.90;;;;;;5221713;28;20433;-49
2023/10/13 00:19:55;;;;;;;11.60;6.20;;;13.40;99.90;;;;;;5206756;28;20182;-49
2023/10/13 00:22:27;;;;;;;13.93;6.63;;;13.40;99.90;;;;;;5218040;28;20182;-50
2023/10/13 00:25:03;;;;;;;7.53;5.97;;;13.40;99.90;;;;;;5222334;28;20563;-47
2023/10/13 00:27:36;;;;;;;10.30;7.20;;;13.40;99.90;;;;;;5205263;28;20560;-48
2023/10/13 00:30:24;;;;;;;15.67;6.27;;;13.40;99.90;;;;;;5223059;28;20511;-48
2023/10/13 00:32:55;;;;;;;11.90;8.10;;;13.40;99.90;;;;;;5221131;28;20445;-49
2023/10/13 00:35:36;;;;;;;14.50;8.67;;;13.30;99.90;;;;;;5218821;28;20457;-49
2023/10/13 00:38:12;;;;;;;21.20;8.13;;;13.30;99.90;;;;;;5220669;28;20964;-50
2023/10/13 00:40:51;;;;;;;15.63;6.83;;;13.30;99.90;;;;;;5219536;28;20432;-49
2023/10/13 00:45:56;;;;;;;15.77;7.47;;;13.30;99.90;;;;;;5222282;28;21029;-50
2023/10/13 00:48:34;;;;;;;12.83;6.40;;;13.30;99.90;;;;;;5219110;28;20429;-49
2023/10/13 00:51:18;;;;;;;11.97;5.40;;;13.30;99.90;;;;;;5220587;28;20458;-49
2023/10/13 00:53:50;;;;;;;11.90;5.37;;;13.20;99.90;;;;;;5233711;28;20433;-49
2023/10/13 00:56:27;;;;;;;15.90;5.57;;;13.20;99.90;;;;;;5225645;28;20490;-49
2023/10/13 00:59:02;;;;;;;18.83;5.93;;;13.20;99.90;;;;;;5220794;28;20468;-49
2023/10/13 01:01:32;;;;;;;6.83;4.27;;;13.20;99.90;;;;;;5220345;28;20443;-49
2023/10/13 01:04:08;;;;;;;5.67;4.50;;;13.20;99.90;;;;;;5226512;28;20547;-48
2023/10/13 01:06:39;;;;;;;7.00;3.87;;;13.20;99.90;;;;;;5227044;28;20213;-49
2023/10/13 01:09:16;;;;;;;8.13;3.97;;;13.10;99.90;;;;;;5242219;28;20464;-49
2023/10/13 01:11:52;;;;;;;6.20;3.97;;;13.20;99.90;;;;;;5226479;28;21029;-49
2023/10/13 01:14:27;;;;;;;9.83;3.87;;;13.20;99.90;;;;;;5229543;28;20474;-50
2023/10/13 01:16:58;;;;;;;3.37;3.00;;;13.20;99.90;;;;;;5222920;28;20444;-48
2023/10/13 01:19:29;;;;;;;6.80;3.53;;;13.20;99.90;;;;;;5238723;28;20438;-49
2023/10/13 01:22:02;;;;;;;4.47;3.30;;;13.20;99.90;;;;;;5227055;28;20441;-48
2023/10/13 01:24:36;;;;;;;7.73;3.03;;;13.20;99.90;;;;;;5227270;28;20292;-49
2023/10/13 01:29:41;;;;;;;4.23;3.63;;;13.20;99.90;;;;;;5227834;28;21133;-49
2023/10/13 01:32:12;;;;;;;5.33;3.73;;;13.20;99.90;;;;;;5225049;28;20434;-48
2023/10/13 01:34:46;;;;;;;8.77;3.30;;;13.20;99.90;;;;;;5222477;28;20222;-49
2023/10/13 01:37:19;;;;;;;14.70;4.17;;;13.20;99.90;;;;;;5223336;28;20433;-48
2023/10/13 01:39:50;;;;;;;4.10;3.50;;;13.20;99.90;;;;;;5223919;28;20483;-48
2023/10/13 01:42:21;;;;;;;7.80;4.97;;;13.20;99.90;;;;;;5221892;28;21055;-49
2023/10/13 01:44:57;;;;;;;8.30;4.47;;;13.20;99.90;;;;;;5224332;28;20866;-52
2023/10/13 01:47:28;;;;;;;6.40;4.30;;;13.30;99.90;;;;;;5223212;28;20441;-49
2023/10/13 01:50:12;;;;;;;10.67;5.40;;;13.30;99.90;;;;;;5223006;28;20465;-49
2023/10/13 01:52:43;;;;;;;5.40;4.20;;;13.20;99.90;;;;;;5224626;28;20218;-50
2023/10/13 01:55:14;;;;;;;11.57;4.80;;;13.30;99.90;;;;;;5226545;28;20480;-48
2023/10/13 01:57:47;;;;;;;8.03;5.33;;;13.30;99.90;;;;;;5222709;28;20647;-49
2023/10/13 02:00:21;;;;;;;14.63;5.60;;;13.30;99.90;;;;;;5221725;28;20491;-48
2023/10/13 02:02:52;;;;;;;7.27;4.73;;;13.30;99.90;;;;;;5221554;28;20522;-50
2023/10/13 02:05:32;;;;;;;11.50;4.93;;;13.30;99.90;;;;;;5227169;28;20469;-49
2023/10/13 02:08:03;;;;;;;8.73;5.37;;;13.40;99.90;;;;;;5222412;28;20452;-49
2023/10/13 02:10:34;;;;;;;9.00;4.90;;;13.40;99.90;;;;;;5225868;28;20456;-49
2023/10/13 02:13:05;;;;;;;8.83;4.73;;;13.40;99.90;;;;;;5222716;28;20796;-49
2023/10/13 02:15:36;;;;;;;7.13;4.10;;;13.40;99.90;;;;;;5238933;28;20198;-48
2023/10/13 02:18:07;;;;;;;10.47;5.77;;;13.50;99.90;;;;;;5217096;28;20643;-49
2023/10/13 02:20:45;;;;;;;13.60;5.77;;;13.40;99.90;;;;;;5223921;28;20437;-49
2023/10/13 02:23:16;;;;;;;10.70;4.87;;;13.40;99.90;;;;;;5225418;28;20175;-48
2023/10/13 02:25:46;;;;;;;19.60;6.27;;;13.40;99.90;;;;;;5238398;28;20790;-50
2023/10/13 02:28:21;;;;;;;8.70;5.83;;;13.30;99.90;;;;;;5220998;28;20183;-49
2023/10/13 02:30:53;;;;;;;13.67;6.83;;;13.30;99.90;;;;;;5220824;28;20216;-50
2023/10/13 02:33:30;;;;;;;18.73;7.00;;;13.30;99.90;;;;;;5215943;28;20432;-49
2023/10/13 02:36:04;;;;;;;11.70;6.87;;;13.20;99.90;;;;;;5220510;28;20449;-51
2023/10/13 02:41:19;;;;;;;6.20;5.00;;;13.30;99.90;;;;;;5220683;28;20556;-48
2023/10/13 02:43:49;;;;;;;8.97;6.13;;;13.40;99.90;;;;;;5223617;28;20820;-49
2023/10/13 02:46:28;;;;;;;11.83;6.47;;;13.30;99.90;;;;;;5223373;28;20453;-49
2023/10/13 02:49:02;;;;;;;12.57;7.20;;;13.30;99.90;;;;;;5225668;28;20174;-48
2023/10/13 02:51:35;;;;;;;14.00;7.10;;;13.30;99.90;;;;;;5225970;28;20799;-49
2023/10/13 02:54:18;;;;;;;10.30;7.50;;;13.30;99.90;;;;;;5224003;28;20438;-48
2023/10/13 02:56:57;;;;;;;14.70;5.97;;;13.40;99.90;;;;;;5227781;28;20425;-49
2023/10/13 03:02:30;;;;;;;14.13;6.37;;;13.40;99.90;;;;;;5223947;28;20476;-48
2023/10/13 03:05:09;;;;;;;15.70;6.90;;;13.50;99.90;;;;;;5219946;28;20453;-49
2023/10/13 03:07:44;;;;;;;10.43;7.67;;;13.60;99.90;;;;;;5220424;28;20933;-50
2023/10/13 03:10:15;;;;;;;15.03;7.37;;;13.50;99.90;;;;;;5223572;28;20553;-50
2023/10/13 03:12:48;;;;;;;15.27;7.20;;;13.50;99.90;;;;;;5222313;28;20464;-49
2023/10/13 03:15:28;;;;;;;13.93;8.37;;;13.50;99.90;;;;;;5221502;28;20550;-49
2023/10/13 03:17:59;;;;;;;16.53;9.47;;;13.50;99.90;;;;;;5226274;28;20428;-48
2023/10/13 03:20:32;;;;;;;20.87;9.03;;;13.50;99.90;;;;;;5238837;28;20444;-48
2023/10/13 03:23:09;;;;;;;19.70;8.10;;;13.50;99.90;;;;;;5219868;28;20194;-50
2023/10/13 03:25:42;;;;;;;18.63;9.10;;;13.50;99.90;;;;;;5218407;28;20483;-47
2023/10/13 03:28:13;;;;;;;21.53;8.03;;;13.50;99.90;;;;;;5223056;28;20425;-48
2023/10/13 03:30:44;;;;;;;18.07;9.67;;;13.50;99.90;;;;;;5238405;28;20519;-48
2023/10/13 03:33:25;;;;;;;13.87;8.60;;;13.50;99.90;;;;;;5225572;28;20494;-48
2023/10/13 03:36:05;;;;;;;20.67;9.20;;;13.60;99.90;;;;;;5236572;28;20652;-49
2023/10/13 03:38:36;;;;;;;19.40;9.70;;;13.70;99.90;;;;;;5223911;28;20421;-47
2023/10/13 03:41:08;;;;;;;17.77;9.60;;;13.60;99.90;;;;;;5225817;28;20441;-48
2023/10/13 03:43:52;;;;;;;16.90;10.23;;;13.70;99.90;;;;;;5225900;28;20495;-48
2023/10/13 03:46:22;;;;;;;14.70;10.13;;;13.60;99.90;;;;;;5218373;28;20441;-48
2023/10/13 03:49:01;;;;;;;21.20;10.50;;;13.60;99.90;;;;;;5223841;28;20947;-49
2023/10/13 03:51:31;;;;;;;11.97;10.07;;;13.60;99.90;;;;;;5223937;28;20202;-48
2023/10/13 03:54:07;;;;;;;23.67;10.70;;;13.60;99.90;;;;;;5222456;28;20452;-49
2023/10/13 04:01:58;;;;;;;17.83;9.33;;;13.60;99.90;;;;;;5217266;28;20190;-48
2023/10/13 04:04:47;;;;;;;18.00;10.67;;;13.60;99.90;;;;;;5221355;28;20892;-49
2023/10/13 04:11:41;;;;;;;19.10;12.00;;;13.60;99.90;;;;;;5221411;28;20476;-49
2023/10/13 04:19:08;;;;;;;27.20;11.23;;;13.70;99.90;;;;;;5222263;28;20806;-49
2023/10/13 04:29:55;;;;;;;33.03;15.00;;;13.90;99.90;;;;;;5217235;28;20476;-51
2023/10/13 04:32:29;;;;;;;20.50;13.40;;;13.80;99.90;;;;;;5216930;28;20978;-50
2023/10/13 04:35:17;;;;;;;22.77;14.60;;;13.80;99.90;;;;;;5219229;28;20449;-49
2023/10/13 04:37:58;;;;;;;23.70;14.00;;;13.80;99.90;;;;;;5208058;28;20949;-49
2023/10/13 04:40:35;;;;;;;27.83;15.80;;;13.80;99.90;;;;;;5226406;28;20444;-48
2023/10/13 04:43:32;;;;;;;20.23;12.40;;;13.90;99.90;;;;;;5230385;28;20951;-49
2023/10/13 04:46:25;;;;;;;31.43;14.37;;;13.90;99.90;;;;;;5221816;28;20469;-49
2023/10/13 04:48:56;;;;;;;19.87;13.60;;;13.90;99.90;;;;;;5222346;28;21140;-50
2023/10/13 04:55:32;;;;;;;34.60;16.13;;;14.00;99.90;;;;;;5224569;28;20405;-51
2023/10/13 05:00:55;;;;;;;23.00;16.10;;;14.00;99.90;;;;;;5227420;28;20540;-49
2023/10/13 05:06:08;;;;;;;21.37;14.60;;;13.90;99.90;;;;;;5251585;22;20861;-51
2023/10/13 05:45:36;;;;;;;17.50;13.37;;;14.40;99.90;;;;;;5245214;28;21002;-49
2023/10/13 05:48:15;;;;;;;25.13;14.00;;;14.50;99.90;;;;;;5242678;28;20819;-49
2023/10/13 05:51:32;;;;;;;22.30;14.50;;;14.50;99.90;;;;;;5244568;28;20459;-50
2023/10/13 06:30:56;;;;;;;19.83;11.90;;;16.30;99.90;;;;;;5239279;28;20563;-50
2023/10/13 06:33:29;;;;;;;34.03;10.37;;;17.00;99.90;;;;;;5249044;28;20424;-50
2023/10/13 06:36:09;;;;;;;15.83;10.37;;;17.40;99.90;;;;;;5243788;28;20601;-51
2023/10/13 06:38:41;;;;;;;14.57;9.70;;;17.30;99.90;;;;;;5234331;28;20989;-50
2023/10/13 06:41:19;;;;;;;12.53;9.70;;;17.10;99.90;;;;;;5239208;28;20493;-50
2023/10/13 06:43:59;;;;;;;14.87;10.40;;;16.90;99.90;;;;;;5238918;28;20445;-50
2023/10/13 06:46:33;;;;;;;12.77;9.60;;;17.50;99.90;;;;;;5241625;28;20463;-49
2023/10/13 06:49:04;;;;;;;12.23;8.80;;;18.10;99.90;;;;;;5233477;28;20462;-50
2023/10/13 06:51:37;;;;;;;18.83;10.33;;;18.10;99.90;;;;;;5243803;28;21105;-49
2023/10/13 06:54:28;;;;;;;23.17;9.97;;;18.10;99.90;;;;;;5240247;28;20194;-50
2023/10/13 06:56:59;;;;;;;12.33;8.40;;;18.90;99.90;;;;;;5241714;28;20998;-49
2023/10/13 06:59:36;;;;;;;11.27;8.17;;;20.20;99.90;;;;;;5240946;28;20468;-49
2023/10/13 07:02:09;;;;;;;19.03;9.10;;;21.10;99.90;;;;;;5238846;28;20661;-50
2023/10/13 07:04:40;;;;;;;8.27;6.90;;;22.20;99.90;;;;;;5244066;28;20752;-50
2023/10/13 07:07:11;;;;;;;8.00;6.90;;;23.20;99.90;;;;;;5241877;28;20491;-48
2023/10/13 07:09:58;;;;;;;14.33;7.30;;;24.10;99.90;;;;;;5236465;28;20197;-49
2023/10/13 07:12:33;;;;;;;7.30;6.60;;;25.00;99.90;;;;;;5236593;28;20170;-49
2023/10/13 07:15:19;;;;;;;14.17;7.50;;;24.80;99.90;;;;;;5235542;28;20455;-50
2023/10/13 07:17:59;;;;;;;8.77;7.27;;;23.10;99.90;;;;;;5238039;28;20988;-50
2023/10/13 07:23:03;;;;;;;11.90;7.03;;;21.40;99.90;;;;;;5241751;28;20983;-50
2023/10/13 07:25:37;;;;;;;10.97;7.77;;;20.80;99.90;;;;;;5235905;28;20245;-48
2023/10/13 07:28:08;;;;;;;9.53;6.47;;;20.30;99.90;;;;;;5237798;28;20436;-50
2023/10/13 07:30:42;;;;;;;9.37;6.07;;;19.90;99.90;;;;;;5237651;28;20479;-49
2023/10/13 07:33:13;;;;;;;16.10;7.43;;;19.40;99.90;;;;;;5235315;28;20444;-49
2023/10/13 07:35:44;;;;;;;11.80;7.50;;;19.00;99.90;;;;;;5239330;28;20507;-50
2023/10/13 07:38:16;;;;;;;10.80;7.20;;;18.70;99.90;;;;;;5238906;28;20535;-51
2023/10/13 07:40:53;;;;;;;11.10;7.90;;;18.40;99.90;;;;;;5238963;28;20186;-49
2023/10/13 07:43:24;;;;;;;10.50;8.10;;;18.30;99.90;;;;;;5237497;28;21047;-49
2023/10/13 07:45:58;;;;;;;9.90;6.77;;;18.20;99.90;;;;;;5236740;28;20464;-52
2023/10/13 07:48:29;;;;;;;16.83;7.50;;;18.20;99.90;;;;;;5239351;28;20208;-51
2023/10/13 07:51:04;;;;;;;15.70;8.67;;;18.30;99.90;;;;;;5242415;28;20472;-50
2023/10/13 07:53:37;;;;;;;8.90;6.90;;;18.30;99.90;;;;;;5241616;28;20178;-49
2023/10/13 07:56:08;;;;;;;11.30;7.03;;;18.40;99.90;;;;;;5222632;28;20461;-48
2023/10/13 07:59:00;;;;;;;7.73;6.77;;;18.40;99.90;;;;;;5239242;28;20433;-51
2023/10/13 08:01:30;;;;;;;10.57;7.63;;;18.40;99.90;;;;;;5233027;28;20429;-49
2023/10/13 08:04:16;;;;;;;9.33;6.13;;;18.30;99.90;;;;;;5236610;28;20439;-50
2023/10/13 08:06:48;;;;;;;11.97;7.27;;;18.10;99.90;;;;;;5237858;28;20707;-50
2023/10/13 08:09:40;;;;;;;8.83;6.90;;;18.00;99.90;;;;;;5244976;28;20436;-48
2023/10/13 08:12:11;;;;;;;9.17;6.50;;;18.10;99.90;;;;;;5247936;28;20440;-48
2023/10/13 08:14:44;;;;;;;10.90;5.80;;;18.20;99.90;;;;;;5250928;28;20447;-47
2023/10/13 08:17:15;;;;;;;9.20;6.73;;;18.20;99.90;;;;;;5232813;28;20435;-50
2023/10/13 08:19:45;;;;;;;11.53;6.50;;;18.10;99.90;;;;;;5251142;28;20436;-47
2023/10/13 08:30:26;;;;;;;7.50;6.27;;;18.50;99.90;;;;;;5248215;28;20521;-50
2023/10/13 08:32:58;;;;;;;8.50;6.03;;;18.60;99.90;;;;;;5244294;28;20431;-51
2023/10/13 08:38:04;;;;;;;9.43;5.80;;;18.80;99.90;;;;;;5249744;28;20531;-50
2023/10/13 08:43:42;;;;;;;10.67;7.57;;;18.90;99.90;;;;;;5247234;28;20469;-46
2023/10/13 08:46:28;;;;;;;5.10;4.63;;;18.90;99.90;;;;;;5247731;28;20466;-50
2023/10/13 08:49:18;;;;;;;13.13;5.70;;;18.90;99.90;;;;;;5250304;28;20474;-49
2023/10/13 08:51:50;;;;;;;5.93;4.90;;;19.00;99.90;;;;;;5255318;28;20459;-51
2023/10/13 08:54:33;;;;;;;7.47;5.50;;;19.00;99.90;;;;;;5245054;28;20520;-50
2023/10/13 08:57:19;;;;;;;7.93;5.80;;;18.90;99.90;;;;;;5247692;28;20467;-48
2023/10/13 08:59:53;;;;;;;7.37;6.20;;;18.90;99.90;;;;;;5249370;28;20436;-51
2023/10/13 09:05:42;;;;;;;8.57;5.80;;;18.70;99.90;;;;;;5222227;28;20457;-51
2023/10/13 09:08:16;;;;;;;7.47;5.23;;;18.60;99.90;;;;;;5222623;28;21022;-47
2023/10/13 09:11:05;;;;;;;8.20;5.47;;;18.60;99.90;;;;;;5237941;28;20472;-52
2023/10/13 09:13:46;;;;;;;5.90;4.20;;;18.60;99.90;;;;;;5244690;28;20519;-49
2023/10/13 09:16:22;;;;;;;12.80;5.57;;;18.70;99.90;;;;;;5246854;28;20506;-47
2023/10/13 09:19:04;;;;;;;5.40;5.00;;;18.80;99.90;;;;;;5248068;28;20424;-48
2023/10/13 09:24:31;;;;;;;12.10;5.40;;;18.90;99.90;;;;;;5247594;28;20435;-48
2023/10/13 09:27:04;;;;;;;5.80;5.27;;;18.80;99.90;;;;;;5242854;28;20456;-46
2023/10/13 09:29:38;;;;;;;6.50;5.60;;;18.70;99.90;;;;;;5246156;28;20523;-48
2023/10/13 09:32:12;;;;;;;17.27;5.77;;;18.70;99.90;;;;;;5245397;28;20800;-53
2023/10/13 09:34:45;;;;;;;7.70;5.53;;;18.70;99.90;;;;;;5243249;28;20436;-47
2023/10/13 09:37:20;;;;;;;5.70;5.23;;;18.60;99.90;;;;;;5238637;28;20535;-51
2023/10/13 09:40:04;;;;;;;6.73;5.13;;;18.60;99.90;;;;;;5247062;28;20492;-49
2023/10/13 09:42:34;;;;;;;10.83;6.27;;;18.60;99.90;;;;;;5242050;28;20471;-46
2023/10/13 09:45:12;;;;;;;9.00;5.20;;;18.60;99.90;;;;;;5245324;28;20487;-50
2023/10/13 09:47:47;;;;;;;10.30;6.43;;;18.60;99.90;;;;;;5246197;28;20185;-49
2023/10/13 09:50:24;;;;;;;7.40;5.60;;;18.70;99.90;;;;;;5249463;28;20546;-48
2023/10/13 09:52:56;;;;;;;10.03;5.37;;;18.70;99.90;;;;;;5247707;28;20439;-53
2023/10/13 09:55:33;;;;;;;7.17;6.47;;;18.50;99.90;;;;;;5248232;28;21961;-48
2023/10/13 09:58:11;;;;;;;10.73;5.47;;;18.40;99.90;;;;;;5248862;28;20515;-51
2023/10/13 10:01:20;;;;;;;12.60;6.80;;;18.30;99.90;;;;;;5245868;28;21030;-47
2023/10/13 10:04:09;;;;;;;14.83;6.90;;;18.20;99.90;;;;;;5247567;28;20474;-48
2023/10/13 10:06:40;;;;;;;7.57;6.17;;;18.20;99.90;;;;;;5245243;28;20496;-47
2023/10/13 10:09:11;;;;;;;11.63;5.70;;;18.00;99.90;;;;;;5246694;28;20454;-49
2023/10/13 10:11:54;;;;;;;11.87;6.13;;;18.10;99.90;;;;;;5246007;28;20633;-48
2023/10/13 10:14:59;;;;;;;9.93;5.70;;;18.10;99.90;;;;;;5244476;28;20428;-47
2023/10/13 10:17:39;;;;;;;6.27;5.67;;;18.10;99.90;;;;;;5246332;28;20796;-48
2023/10/13 10:20:32;;;;;;;7.60;5.90;;;18.20;99.90;;;;;;5248392;28;21036;-48
2023/10/13 10:23:04;;;;;;;10.20;6.50;;;18.20;99.90;;;;;;5245407;28;20798;-46
2023/10/13 10:25:37;;;;;;;11.77;6.57;;;18.10;99.90;;;;;;5245310;28;20483;-48
2023/10/13 10:28:08;;;;;;;8.37;5.90;;;18.10;99.90;;;;;;5244894;28;20420;-48
2023/10/13 10:30:39;;;;;;;7.90;5.43;;;18.10;99.90;;;;;;5245874;28;20491;-50
2023/10/13 10:33:18;;;;;;;6.63;6.00;;;18.10;99.90;;;;;;5243580;28;20265;-48
2023/10/13 10:36:00;;;;;;;12.60;9.17;;;18.10;99.90;;;;;;5241489;28;20206;-47
2023/10/13 10:38:38;;;;;;;11.47;5.93;;;18.10;99.90;;;;;;5242451;28;20435;-48
2023/10/13 10:41:13;;;;;;;10.97;7.10;;;18.20;99.90;;;;;;5240554;28;20983;-48
2023/10/13 10:43:46;;;;;;;8.40;6.40;;;18.10;99.90;;;;;;5243810;28;20535;-50
2023/10/13 10:46:42;;;;;;;5.63;5.23;;;18.10;99.90;;;;;;5239531;28;20826;-47
2023/10/13 10:49:13;;;;;;;11.60;5.97;;;17.80;99.90;;;;;;5240289;28;20436;-48
2023/10/13 10:51:45;;;;;;;7.07;6.37;;;17.70;99.90;;;;;;5243251;28;20472;-46
2023/10/13 10:54:20;;;;;;;25.47;11.80;;;17.70;99.90;;;;;;5252579;28;20198;-48
2023/10/13 10:56:56;;;;;;;10.40;6.50;;;17.60;99.90;;;;;;5243791;28;20455;-50
2023/10/13 10:59:37;;;;;;;8.57;6.80;;;17.60;99.90;;;;;;5240582;28;20460;-49
2023/10/13 11:02:08;;;;;;;11.27;7.10;;;17.60;99.90;;;;;;5241327;28;20792;-52
2023/10/13 11:04:50;;;;;;;7.13;5.60;;;17.60;99.90;;;;;;5241692;28;20433;-51
2023/10/13 11:07:27;;;;;;;13.83;7.17;;;17.70;99.90;;;;;;5262441;22;20487;-51
2023/10/13 11:10:19;;;;;;;11.90;7.23;;;17.80;99.90;;;;;;5240226;28;20500;-51
2023/10/13 11:13:21;;;;;;;11.40;6.80;;;17.70;99.90;;;;;;5238220;28;20546;-50
2023/10/13 11:15:52;;;;;;;9.13;6.50;;;17.70;99.90;;;;;;5220509;28;20555;-52
2023/10/13 11:18:40;;;;;;;12.17;6.57;;;17.80;99.90;;;;;;5239945;28;20520;-52
2023/10/13 11:21:15;;;;;;;8.87;6.87;;;18.00;99.90;;;;;;5221686;28;20182;-51
2023/10/13 11:24:08;;;;;;;13.97;6.53;;;17.90;99.90;;;;;;5226395;28;20439;-49
2023/10/13 11:26:52;;;;;;;10.13;7.70;;;17.90;99.90;;;;;;5243056;28;20455;-49
2023/10/13 11:29:33;;;;;;;7.30;6.30;;;18.10;99.90;;;;;;5224129;28;20536;-49
2023/10/13 11:32:04;;;;;;;11.03;6.93;;;18.10;99.90;;;;;;5237688;28;20563;-51
2023/10/13 11:34:41;;;;;;;7.93;6.80;;;18.00;99.90;;;;;;5241158;28;20992;-50
2023/10/13 11:40:09;;;;;;;8.90;6.73;;;18.20;99.90;;;;;;5243928;28;20906;-50
2023/10/13 11:42:47;;;;;;;8.93;6.10;;;18.30;99.90;;;;;;5218773;28;20450;-50
2023/10/13 11:45:31;;;;;;;7.73;6.60;;;18.30;99.90;;;;;;5220139;28;20810;-49
2023/10/13 11:48:02;;;;;;;13.00;7.87;;;18.30;99.90;;;;;;5221464;28;20535;-51
2023/10/13 11:50:34;;;;;;;12.50;6.83;;;18.20;99.90;;;;;;5224245;28;20456;-50
2023/10/13 11:53:07;;;;;;;7.93;7.13;;;18.10;99.90;;;;;;5223907;28;20960;-51
2023/10/13 11:55:38;;;;;;;10.63;7.27;;;18.30;99.90;;;;;;5220917;28;20963;-52
2023/10/13 11:58:09;;;;;;;16.17;7.53;;;18.30;99.90;;;;;;5243677;28;20432;-52
2023/10/13 12:00:54;;;;;;;13.80;7.27;;;18.40;99.90;;;;;;5238796;28;20198;-53
2023/10/13 12:06:35;;;;;;;8.67;6.50;;;18.50;99.90;;;;;;5238677;28;21125;-53
2023/10/13 12:11:53;;;;;;;7.03;6.00;;;18.60;99.90;;;;;;5239440;28;20558;-51
2023/10/13 12:50:07;;;;;;;9.10;5.43;;;20.10;99.90;;;;;;5239085;28;20429;-50
2023/10/13 12:52:38;;;;;;;5.00;4.60;;;20.20;99.90;;;;;;5241994;28;20484;-50
2023/10/13 12:55:13;;;;;;;5.50;4.80;;;20.40;99.90;;;;;;5237674;28;20445;-51
2023/10/13 12:57:44;;;;;;;7.50;4.87;;;20.40;99.90;;;;;;5220612;28;20934;-50
2023/10/13 13:00:25;;;;;;;11.93;5.70;;;20.60;99.90;;;;;;5245492;28;20472;-51
2023/10/13 13:02:59;;;;;;;21.10;5.93;;;20.60;99.90;;;;;;5208476;28;20213;-50
2023/10/13 13:05:31;;;;;;;16.07;5.40;;;20.60;99.90;;;;;;5239207;28;24380;-52
2023/10/13 13:08:02;;;;;;;9.97;4.50;;;20.70;99.90;;;;;;5210755;28;20448;-52
2023/10/13 13:10:36;;;;;;;7.60;4.83;;;20.80;99.90;;;;;;5224387;28;20734;-50
2023/10/13 13:13:07;;;;;;;14.73;4.83;;;20.80;99.90;;;;;;5229065;28;20554;-51
2023/10/13 13:15:38;;;;;;;15.33;4.97;;;20.80;99.90;;;;;;5244216;28;20514;-51
2023/10/13 13:18:12;;;;;;;10.33;5.00;;;20.90;99.90;;;;;;5246895;28;20799;-50
2023/10/13 13:20:55;;;;;;;11.30;5.23;;;21.00;99.90;;;;;;5224315;28;20190;-51
2023/10/13 13:23:25;;;;;;;12.50;4.80;;;21.10;99.90;;;;;;5224973;28;20463;-50
2023/10/13 13:25:56;;;;;;;20.47;6.00;;;21.20;99.90;;;;;;5228725;28;20526;-51
2023/10/13 13:28:37;;;;;;;8.17;4.50;;;21.20;99.90;;;;;;5246824;28;20657;-50
2023/10/13 13:31:08;;;;;;;11.97;5.07;;;21.20;99.90;;;;;;5241639;28;20424;-50
2023/10/13 13:33:43;;;;;;;15.80;5.17;;;21.30;99.90;;;;;;5228042;28;20447;-51
2023/10/13 13:36:15;;;;;;;6.70;4.90;;;21.30;99.90;;;;;;5223495;28;20556;-52
2023/10/13 13:38:46;;;;;;;7.50;4.63;;;21.50;99.90;;;;;;5222040;28;20459;-50
2023/10/13 13:41:17;;;;;;;7.30;4.10;;;21.50;99.90;;;;;;5241224;28;20444;-51
2023/10/13 13:46:27;;;;;;;14.10;4.97;;;21.60;99.90;;;;;;5245017;28;20466;-51
2023/10/13 13:49:00;;;;;;;7.80;4.77;;;21.60;99.90;;;;;;5223352;28;20739;-51
2023/10/13 13:51:32;;;;;;;15.80;5.87;;;21.70;99.90;;;;;;5227875;28;20888;-50
2023/10/13 13:54:06;;;;;;;5.53;4.33;;;21.70;99.90;;;;;;5227261;28;20606;-50
2023/10/13 13:56:39;;;;;;;6.13;5.00;;;21.70;99.90;;;;;;5223737;28;20455;-50
2023/10/13 13:59:15;;;;;;;7.83;5.43;;;21.80;99.90;;;;;;5243790;28;20472;-49
2023/10/13 14:01:46;;;;;;;6.50;4.77;;;21.80;99.90;;;;;;5207094;28;20920;-52
2023/10/13 14:04:17;;;;;;;8.70;5.63;;;21.70;99.90;;;;;;5228713;28;20441;-51
2023/10/13 14:06:50;;;;;;;10.77;5.37;;;21.80;99.90;;;;;;5222852;28;20997;-50
2023/10/13 14:09:32;;;;;;;6.30;4.90;;;21.70;99.90;;;;;;5241216;28;20440;-50
2023/10/13 14:14:55;;;;;;;16.20;5.23;;;22.00;99.90;;;;;;5245231;28;20453;-50
2023/10/13 14:17:28;;;;;;;9.70;4.17;;;22.20;99.90;;;;;;5245049;28;20449;-52
2023/10/13 14:19:59;;;;;;;5.87;4.00;;;22.10;99.90;;;;;;5227832;28;20464;-49
2023/10/13 14:22:36;;;;;;;10.03;4.60;;;22.10;99.90;;;;;;5224672;28;20980;-49
2023/10/13 14:25:09;;;;;;;10.40;4.60;;;22.10;99.90;;;;;;5235836;28;20268;-50
2023/10/13 14:27:42;;;;;;;8.40;4.73;;;22.00;99.90;;;;;;5224889;28;20539;-51
2023/10/13 14:30:19;;;;;;;7.47;4.40;;;22.00;99.90;;;;;;5241626;28;20563;-50
2023/10/13 14:32:50;;;;;;;6.70;4.60;;;22.10;99.90;;;;;;5222660;28;20447;-50
2023/10/13 14:35:20;;;;;;;14.03;5.30;;;21.90;99.90;;;;;;5227166;28;20441;-50
2023/10/13 14:37:51;;;;;;;7.90;4.67;;;21.90;99.90;;;;;;5222501;28;20190;-50
2023/10/13 14:40:22;;;;;;;9.30;5.00;;;21.80;99.90;;;;;;5241439;28;20178;-50
2023/10/13 14:42:53;;;;;;;8.63;4.93;;;21.90;99.90;;;;;;5239133;28;20459;-50
2023/10/13 14:45:24;;;;;;;8.80;4.50;;;22.10;99.90;;;;;;5240257;28;20217;-51
2023/10/13 14:47:54;;;;;;;9.00;4.40;;;22.10;99.90;;;;;;5217125;28;20195;-50
2023/10/13 14:50:25;;;;;;;24.13;5.20;;;22.00;99.90;;;;;;5226519;28;20199;-50
2023/10/13 14:52:57;;;;;;;7.20;4.20;;;22.00;99.90;;;;;;5226215;28;20656;-49
2023/10/13 14:55:38;;;;;;;8.07;4.90;;;21.90;99.90;;;;;;5222880;28;20282;-50
2023/10/13 14:58:12;;;;;;;13.40;5.07;;;21.90;99.90;;;;;;5243986;28;20440;-50
2023/10/13 15:00:45;;;;;;;15.00;5.47;;;21.90;99.90;;;;;;5221289;28;20509;-49
2023/10/13 15:03:18;;;;;;;13.10;4.63;;;21.80;99.90;;;;;;5223667;28;20971;-51
2023/10/13 15:05:49;;;;;;;6.07;4.00;;;21.70;99.90;;;;;;5225745;28;20517;-51
2023/10/13 15:08:19;;;;;;;11.20;4.80;;;21.80;99.90;;;;;;5225871;28;22248;-49
2023/10/13 15:10:50;;;;;;;6.20;4.10;;;21.70;99.90;;;;;;5246061;28;20217;-50
2023/10/13 15:13:22;;;;;;;10.23;5.93;;;21.60;99.90;;;;;;5223977;28;20239;-51
2023/10/13 15:15:53;;;;;;;13.67;5.67;;;21.50;99.90;;;;;;5242737;28;20234;-50
2023/10/13 15:18:24;;;;;;;7.83;4.60;;;21.50;99.90;;;;;;5239880;28;20848;-50
2023/10/13 15:20:56;;;;;;;10.10;4.93;;;21.50;99.90;;;;;;5220371;28;20225;-50
2023/10/13 15:23:30;;;;;;;7.30;4.73;;;21.50;99.90;;;;;;5241636;28;20721;-50
2023/10/13 15:26:09;;;;;;;7.27;4.73;;;21.40;99.90;;;;;;5219734;28;20472;-51
2023/10/13 15:28:49;;;;;;;12.03;4.50;;;21.40;99.90;;;;;;5242567;28;23198;-50
2023/10/13 15:31:25;;;;;;;9.60;4.90;;;21.40;99.90;;;;;;5218188;28;20466;-49
2023/10/13 15:33:56;;;;;;;12.23;5.07;;;21.30;99.90;;;;;;5241167;28;20454;-50
2023/10/13 15:36:27;;;;;;;9.80;4.87;;;21.30;99.90;;;;;;5208860;28;20476;-51
2023/10/13 15:38:58;;;;;;;9.40;4.67;;;21.20;99.90;;;;;;5223554;28;20228;-51
2023/10/13 15:41:29;;;;;;;10.93;4.80;;;21.10;99.90;;;;;;5222041;28;20935;-51
2023/10/13 15:44:00;;;;;;;18.00;5.43;;;21.20;99.90;;;;;;5230386;28;20186;-51
2023/10/13 15:46:31;;;;;;;11.20;6.23;;;21.10;99.90;;;;;;5237510;28;20535;-52
2023/10/13 15:49:05;;;;;;;8.17;4.93;;;21.10;99.90;;;;;;5222458;28;20467;-50
2023/10/13 15:51:36;;;;;;;9.97;4.87;;;21.30;99.90;;;;;;5223064;28;20206;-50
2023/10/13 15:54:14;;;;;;;11.20;4.63;;;21.10;99.90;;;;;;5223184;28;20432;-52
2023/10/13 15:56:46;;;;;;;19.17;5.30;;;21.00;99.90;;;;;;5223079;28;20198;-50
2023/10/13 15:59:17;;;;;;;8.30;4.57;;;21.10;99.90;;;;;;5222664;28;20790;-50
2023/10/13 16:01:48;;;;;;;9.23;4.80;;;21.10;99.90;;;;;;5226511;28;20432;-51
2023/10/13 16:04:18;;;;;;;13.77;5.30;;;21.10;99.90;;;;;;5241342;28;20193;-50
2023/10/13 16:06:52;;;;;;;6.07;4.80;;;21.00;99.90;;;;;;5243341;28;20214;-51
2023/10/13 16:09:27;;;;;;;13.07;5.10;;;21.00;99.90;;;;;;5222681;28;20595;-51
2023/10/13 16:11:58;;;;;;;14.40;5.80;;;20.90;99.90;;;;;;5209903;28;20782;-51
2023/10/13 16:14:34;;;;;;;8.30;5.43;;;20.90;99.90;;;;;;5224488;28;20437;-49
2023/10/13 16:17:08;;;;;;;12.37;7.20;;;20.80;99.90;;;;;;5226775;28;20206;-50
2023/10/13 16:19:39;;;;;;;10.97;5.20;;;20.80;99.90;;;;;;5227673;28;20806;-52
2023/10/13 16:22:10;;;;;;;12.83;8.30;;;20.80;99.90;;;;;;5244703;28;20440;-49
2023/10/13 16:24:40;;;;;;;11.20;5.70;;;20.80;99.90;;;;;;5225222;28;21303;-50
2023/10/13 16:27:13;;;;;;;12.50;5.20;;;20.70;99.90;;;;;;5224535;28;20214;-49
2023/10/13 16:29:44;;;;;;;10.57;5.13;;;20.70;99.90;;;;;;5242387;28;20208;-50
2023/10/13 16:32:15;;;;;;;10.97;5.40;;;20.60;99.90;;;;;;5222783;28;20467;-48